Time;durP1;ratioP1;P1;durP2;ratioP2;P2;SDS_P1;SDS_P2;PMS_P1;PMS_P2;Temp;Humidity;BMP_temperature;BMP_pressure;BME280_temperature;BME280_humidity;BME280_pressure;Samples;Min_cycle;Max_cycle;Signal;HPM_P1;HPM_P2
2021/07/01 00:01:54;;;;;;;40.40;17.97;;;;;;;13.80;99.74;100394.72;125181;1093;64305;-82
2021/07/01 00:04:22;;;;;;;33.65;13.88;;;;;;;13.79;99.78;100384.25;124878;1092;64296;-84
2021/07/01 00:06:49;;;;;;;38.37;13.20;;;;;;;13.75;99.73;100399.02;124920;1093;64210;-82
2021/07/01 00:09:19;;;;;;;40.10;14.70;;;;;;;13.74;99.48;100390.20;124896;1093;64392;-83
2021/07/01 00:11:49;;;;;;;40.23;14.27;;;;;;;13.71;99.46;100387.95;125113;1092;64296;-84
2021/07/01 00:14:18;;;;;;;41.33;15.90;;;;;;;13.68;99.16;100391.02;125336;1093;64288;-80
2021/07/01 00:16:47;;;;;;;45.73;11.37;;;;;;;13.65;99.39;100386.09;125239;1093;64284;-78
2021/07/01 00:19:14;;;;;;;33.90;13.70;;;;;;;13.60;99.20;100385.87;125436;1093;64397;-80
2021/07/01 00:21:41;;;;;;;32.80;11.17;;;;;;;13.55;99.92;100394.47;125026;1093;64298;-80
2021/07/01 00:24:09;;;;;;;38.77;11.43;;;;;;;13.52;99.07;100386.89;124940;1093;64710;-80
2021/07/01 00:26:37;;;;;;;29.60;12.10;;;;;;;13.48;98.78;100380.33;125022;1093;64362;-79
2021/07/01 00:29:04;;;;;;;34.40;12.23;;;;;;;13.44;99.23;100379.89;125052;1092;64307;-80
2021/07/01 00:31:32;;;;;;;30.20;11.33;;;;;;;13.41;99.76;100377.64;124951;1092;64304;-79
2021/07/01 00:34:00;;;;;;;29.00;11.07;;;;;;;13.38;99.79;100380.70;124978;1092;64343;-81
2021/07/01 00:36:27;;;;;;;34.57;10.13;;;;;;;13.36;99.78;100379.27;124911;1093;64388;-79
2021/07/01 00:38:54;;;;;;;31.63;13.83;;;;;;;13.33;100.00;100377.83;125052;1093;64200;-79
2021/07/01 00:41:21;;;;;;;29.33;14.57;;;;;;;13.31;100.00;100371.88;125123;1093;64285;-79
2021/07/01 00:43:49;;;;;;;39.13;10.93;;;;;;;13.28;100.00;100377.56;124880;1093;64297;-78
2021/07/01 00:46:17;;;;;;;28.85;10.65;;;;;;;13.25;100.00;100377.97;124820;1093;64352;-78
2021/07/01 00:48:44;;;;;;;32.53;13.93;;;;;;;13.22;99.94;100376.54;124964;1093;64303;-78
2021/07/01 00:51:12;;;;;;;30.63;9.77;;;;;;;13.19;100.00;100371.59;125023;1092;65367;-78
2021/07/01 00:53:40;;;;;;;29.27;13.10;;;;;;;13.17;100.00;100376.30;124870;1093;64285;-81
2021/07/01 00:56:09;;;;;;;28.77;11.57;;;;;;;13.15;100.00;100361.55;125028;1092;64284;-79
2021/07/01 00:58:37;;;;;;;27.83;11.67;;;;;;;13.10;100.00;100380.79;125112;1093;64218;-81
2021/07/01 01:01:05;;;;;;;37.83;12.77;;;;;;;13.05;100.00;100362.75;124972;1093;64304;-82
2021/07/01 01:03:37;;;;;;;28.17;10.40;;;;;;;13.02;100.00;100373.78;125204;1093;64308;-83
2021/07/01 01:06:07;;;;;;;31.77;14.67;;;;;;;12.98;100.00;100372.53;125070;1092;64308;-82
2021/07/01 01:08:34;;;;;;;35.90;10.87;;;;;;;12.95;100.00;100367.63;125275;1092;64258;-82
2021/07/01 01:11:01;;;;;;;26.27;10.07;;;;;;;12.92;100.00;100372.52;125262;1092;64261;-82
2021/07/01 01:13:28;;;;;;;27.80;11.27;;;;;;;12.92;100.00;100377.84;125208;1093;64927;-81
2021/07/01 01:16:03;;;;;;;33.53;13.50;;;;;;;12.88;100.00;100377.44;124991;1093;64310;-82
2021/07/01 01:18:32;;;;;;;32.10;10.63;;;;;;;12.87;100.00;100374.95;125121;1092;64365;-82
2021/07/01 01:21:00;;;;;;;33.85;12.15;;;;;;;12.86;100.00;100374.14;125253;1093;64315;-81
2021/07/01 01:23:28;;;;;;;26.30;13.33;;;;;;;12.85;100.00;100378.63;125011;1092;64449;-82
2021/07/01 01:26:00;;;;;;;34.07;9.50;;;;;;;12.84;100.00;100378.84;125217;1093;64181;-81
2021/07/01 01:28:28;;;;;;;24.57;11.67;;;;;;;12.84;100.00;100374.33;126462;1092;65412;-81
2021/07/01 01:30:56;;;;;;;45.67;10.83;;;;;;;12.83;100.00;100377.19;126421;1093;64146;-81
2021/07/01 01:33:24;;;;;;;24.70;11.90;;;;;;;12.83;100.00;100380.66;125219;1092;64282;-81
2021/07/01 01:35:52;;;;;;;20.10;10.03;;;;;;;12.82;100.00;100371.05;125139;1092;64288;-81
2021/07/01 01:38:20;;;;;;;25.10;11.73;;;;;;;12.81;100.00;100381.88;124929;1092;64288;-82
2021/07/01 01:40:48;;;;;;;23.53;9.27;;;;;;;12.80;100.00;100374.93;124969;1092;64307;-82
2021/07/01 01:43:21;;;;;;;27.67;11.23;;;;;;;12.79;100.00;100379.44;125360;1093;64301;-83
2021/07/01 01:45:51;;;;;;;25.00;11.73;;;;;;;12.78;100.00;100371.64;125124;1093;64357;-84
2021/07/01 01:48:21;;;;;;;30.27;14.17;;;;;;;12.78;100.00;100382.29;125177;1093;64304;-83
2021/07/01 01:50:48;;;;;;;28.27;9.63;;;;;;;12.78;100.00;100384.95;125091;1093;64316;-83
2021/07/01 01:53:15;;;;;;;30.77;13.77;;;;;;;12.74;100.00;100381.85;125181;1093;64212;-84
2021/07/01 01:55:42;;;;;;;25.23;11.47;;;;;;;12.75;100.00;100382.66;125084;1093;64283;-84
2021/07/01 01:58:09;;;;;;;31.90;11.37;;;;;;;12.72;100.00;100394.53;125017;1092;64401;-84
2021/07/01 02:00:37;;;;;;;34.65;12.00;;;;;;;12.69;100.00;100388.77;124999;1093;64354;-83
2021/07/01 02:03:06;;;;;;;36.00;16.90;;;;;;;12.64;100.00;100382.23;125026;1092;64304;-85
2021/07/01 02:05:34;;;;;;;36.90;12.47;;;;;;;12.60;100.00;100375.66;125193;1093;64626;-85
2021/07/01 02:08:01;;;;;;;39.47;15.67;;;;;;;12.56;100.00;100379.72;124952;1093;64330;-83
2021/07/01 02:10:30;;;;;;;39.23;13.10;;;;;;;12.52;100.00;100381.13;125073;1092;64394;-83
2021/07/01 02:12:57;;;;;;;39.15;17.35;;;;;;;12.48;100.00;100377.20;124952;1093;64307;-83
2021/07/01 02:15:25;;;;;;;43.55;14.35;;;;;;;12.45;100.00;100388.22;125035;1093;64394;-83
2021/07/01 02:17:54;;;;;;;69.20;18.20;;;;;;;12.40;100.00;100380.02;125081;1092;64291;-83
2021/07/01 02:20:24;;;;;;;64.73;18.60;;;;;;;12.37;100.00;100380.42;125247;1093;64303;-85
2021/07/01 02:22:51;;;;;;;45.87;18.80;;;;;;;12.36;100.00;100379.58;125328;1093;64294;-85
2021/07/01 02:25:19;;;;;;;40.90;14.20;;;;;;;12.34;100.00;100383.45;125013;1092;64982;-84
2021/07/01 02:27:47;;;;;;;49.20;17.47;;;;;;;12.32;100.00;100380.98;125081;1092;64387;-84
2021/07/01 02:30:17;;;;;;;45.33;14.17;;;;;;;12.31;100.00;100386.52;124917;1092;64233;-83
2021/07/01 02:32:45;;;;;;;50.23;17.67;;;;;;;12.28;100.00;100381.56;125047;1093;64285;-81
2021/07/01 02:35:30;;;;;;;39.20;15.70;;;;;;;12.27;100.00;100379.94;125000;1091;64285;-84
2021/07/01 02:37:57;;;;;;;38.10;11.53;;;;;;;12.26;100.00;100378.27;125037;1093;64285;-85
2021/07/01 02:40:24;;;;;;;36.23;13.90;;;;;;;12.25;100.00;100380.12;124932;1093;64432;-83
2021/07/01 02:42:52;;;;;;;54.03;14.93;;;;;;;12.23;100.00;100380.30;125099;1093;64307;-83
2021/07/01 02:45:19;;;;;;;57.60;16.20;;;;;;;12.24;100.00;100379.30;125122;1092;64377;-84
2021/07/01 02:47:46;;;;;;;39.03;15.50;;;;;;;12.25;100.00;100372.14;124878;1093;64284;-82
2021/07/01 02:50:14;;;;;;;48.27;15.10;;;;;;;12.26;100.00;100383.59;124978;1093;64301;-83
2021/07/01 02:52:41;;;;;;;49.97;19.50;;;;;;;12.27;100.00;100367.45;124916;1093;64361;-83
2021/07/01 02:55:09;;;;;;;54.00;20.25;;;;;;;12.29;100.00;100377.91;125076;1092;64287;-83
2021/07/01 02:57:38;;;;;;;59.33;21.33;;;;;;;12.30;100.00;100364.39;125003;1092;64204;-83
2021/07/01 03:00:13;;;;;;;41.70;18.73;;;;;;;12.34;100.00;100370.16;124994;1092;64287;-81
2021/07/01 03:02:41;;;;;;;65.30;17.30;;;;;;;12.34;100.00;100370.16;124956;1093;64307;-83
2021/07/01 03:05:08;;;;;;;57.93;18.60;;;;;;;12.35;100.00;100366.49;124987;1092;64365;-83
2021/07/01 03:07:36;;;;;;;38.83;11.30;;;;;;;12.35;100.00;100366.49;124872;1093;64288;-83
2021/07/01 03:10:05;;;;;;;49.90;19.43;;;;;;;12.35;100.00;100363.83;124946;1092;64341;-83
2021/07/01 03:12:32;;;;;;;60.67;17.63;;;;;;;12.33;100.00;100358.70;124996;1093;64298;-83
2021/07/01 03:14:59;;;;;;;45.47;16.57;;;;;;;12.33;100.00;100363.20;124885;1093;64339;-84
2021/07/01 03:17:27;;;;;;;48.97;17.87;;;;;;;12.33;100.00;100352.56;124951;1093;64348;-83
2021/07/01 03:19:54;;;;;;;69.93;21.77;;;;;;;12.33;100.00;100357.88;125010;1093;64304;-82
2021/07/01 03:22:21;;;;;;;62.13;19.53;;;;;;;12.32;100.00;100367.67;124891;1093;64323;-81
2021/07/01 03:24:48;;;;;;;56.63;17.03;;;;;;;12.31;100.00;100366.05;125101;1092;64230;-83
2021/07/01 03:27:15;;;;;;;59.57;21.53;;;;;;;12.30;100.00;100359.07;124958;1093;64271;-85
2021/07/01 03:29:42;;;;;;;63.37;22.10;;;;;;;12.29;100.00;100356.63;125001;1093;64454;-85
2021/07/01 03:32:10;;;;;;;62.80;20.90;;;;;;;12.27;100.00;100353.34;124833;1093;64217;-84
2021/07/01 03:34:37;;;;;;;55.23;17.90;;;;;;;12.24;100.00;100339.41;124880;1093;64347;-83
2021/07/01 03:37:04;;;;;;;64.20;19.25;;;;;;;12.23;100.00;100359.03;125037;1093;64271;-83
2021/07/01 03:39:31;;;;;;;54.60;16.75;;;;;;;12.21;100.00;100347.77;124935;1093;64301;-83
2021/07/01 03:41:58;;;;;;;49.97;17.47;;;;;;;12.19;100.00;100341.81;125058;1093;64355;-85
2021/07/01 03:44:25;;;;;;;88.70;22.97;;;;;;;12.16;100.00;100336.08;124951;1093;64283;-85
2021/07/01 03:46:52;;;;;;;55.27;18.87;;;;;;;12.14;100.00;100346.09;124997;1092;64287;-84
2021/07/01 03:49:19;;;;;;;64.57;22.77;;;;;;;12.11;100.00;100341.95;125180;1093;64310;-83
2021/07/01 03:51:47;;;;;;;69.63;19.77;;;;;;;12.10;100.00;100337.67;125084;1093;64314;-82
2021/07/01 03:54:14;;;;;;;84.80;21.37;;;;;;;12.10;100.00;100337.67;126037;1092;64297;-84
2021/07/01 03:56:41;;;;;;;54.80;16.90;;;;;;;12.08;100.00;100339.70;128024;1093;63213;-83
2021/07/01 03:59:11;;;;;;;68.87;21.80;;;;;;;12.09;100.00;100333.38;128051;1093;61611;-83
2021/07/01 04:01:42;;;;;;;90.43;20.40;;;;;;;12.08;100.00;100331.72;127866;1093;61867;-83
2021/07/01 04:04:10;;;;;;;51.00;19.30;;;;;;;12.09;100.00;100329.88;127862;1092;64559;-83
2021/07/01 04:06:37;;;;;;;43.90;14.67;;;;;;;12.09;100.00;100346.67;126555;1093;64802;-84
2021/07/01 04:09:06;;;;;;;59.33;17.57;;;;;;;12.10;100.00;100348.30;125144;1092;64815;-82
2021/07/01 04:11:35;;;;;;;56.67;20.13;;;;;;;12.11;100.00;100343.80;125221;1093;64288;-83
2021/07/01 04:14:03;;;;;;;46.50;16.10;;;;;;;12.12;100.00;100350.78;124970;1093;64351;-82
2021/07/01 04:16:30;;;;;;;35.57;15.57;;;;;;;12.13;100.00;100339.92;124874;1092;64310;-84
2021/07/01 04:18:59;;;;;;;36.47;11.70;;;;;;;12.11;100.00;100349.94;124802;1093;64463;-81
2021/07/01 04:21:28;;;;;;;44.33;18.70;;;;;;;12.12;100.00;100348.94;124786;1093;64291;-83
2021/07/01 04:23:56;;;;;;;38.20;12.30;;;;;;;12.12;100.00;100340.14;125186;1092;65019;-81
2021/07/01 04:26:24;;;;;;;72.87;20.37;;;;;;;12.12;100.00;100346.27;124897;1093;64300;-81
2021/07/01 04:28:52;;;;;;;59.30;20.37;;;;;;;12.12;100.00;100353.44;125237;1093;64265;-82
2021/07/01 04:31:21;;;;;;;58.40;19.37;;;;;;;12.14;100.00;100364.70;124811;1093;64355;-81
2021/07/01 04:33:48;;;;;;;40.97;12.67;;;;;;;12.14;100.00;100362.86;125035;1092;64661;-80
2021/07/01 04:36:16;;;;;;;59.23;20.73;;;;;;;12.16;100.00;100362.67;124969;1093;64246;-80
2021/07/01 04:38:44;;;;;;;114.70;25.83;;;;;;;12.16;100.00;100358.17;125260;1093;64262;-82
2021/07/01 04:41:14;;;;;;;80.43;22.20;;;;;;;12.16;100.00;100355.51;125210;1092;64233;-83
2021/07/01 04:43:41;;;;;;;58.35;17.55;;;;;;;12.16;100.00;100358.17;125099;1093;64307;-83
2021/07/01 04:46:08;;;;;;;46.65;15.55;;;;;;;12.16;100.00;100357.36;124820;1093;64319;-83
2021/07/01 04:48:35;;;;;;;71.10;20.23;;;;;;;12.16;100.00;100360.02;124950;1093;64293;-73
2021/07/01 04:51:02;;;;;;;101.87;19.97;;;;;;;12.17;100.00;100354.48;124819;1093;64211;-73
2021/07/01 04:53:29;;;;;;;45.27;15.67;;;;;;;12.18;100.00;100361.46;124773;1093;64277;-73
2021/07/01 04:55:56;;;;;;;154.00;29.63;;;;;;;12.19;100.00;100368.41;124652;1093;64744;-72
2021/07/01 04:58:23;;;;;;;58.33;16.90;;;;;;;12.20;100.00;100370.06;124876;1093;64285;-73
2021/07/01 05:00:50;;;;;;;90.33;20.73;;;;;;;12.20;100.00;100347.98;124890;1093;64285;-73
2021/07/01 05:03:17;;;;;;;131.63;20.10;;;;;;;12.20;100.00;100354.11;124886;1093;64265;-72
2021/07/01 05:05:44;;;;;;;48.63;17.63;;;;;;;12.20;100.00;100348.80;124795;1093;64292;-73
2021/07/01 05:08:11;;;;;;;72.90;20.53;;;;;;;12.22;100.00;100348.61;124655;1093;64390;-72
2021/07/01 05:10:38;;;;;;;73.27;20.13;;;;;;;12.23;100.00;100358.22;124839;1093;64329;-73
2021/07/01 05:13:05;;;;;;;34.03;15.10;;;;;;;12.22;100.00;100357.40;124782;1093;64333;-73
2021/07/01 05:15:33;;;;;;;147.93;25.93;;;;;;;12.21;100.00;100363.72;124835;1093;64284;-72
2021/07/01 05:18:01;;;;;;;83.50;21.13;;;;;;;12.22;100.00;100364.56;124704;1093;64397;-73
2021/07/01 05:20:29;;;;;;;153.57;24.10;;;;;;;12.21;100.00;100355.73;124854;1093;64397;-74
2021/07/01 05:22:56;;;;;;;140.23;26.90;;;;;;;12.21;100.00;100366.38;124993;1093;65912;-73
2021/07/01 05:25:23;;;;;;;85.40;21.10;;;;;;;12.22;100.00;100361.91;124833;1093;64310;-73
2021/07/01 05:27:50;;;;;;;46.33;15.03;;;;;;;12.22;100.00;100369.88;124717;1093;64335;-73
2021/07/01 05:30:18;;;;;;;140.67;22.53;;;;;;;12.22;100.00;100370.70;124686;1093;64237;-73
2021/07/01 05:32:45;;;;;;;117.57;22.57;;;;;;;12.21;100.00;100371.70;124862;1092;64381;-73
2021/07/01 05:35:12;;;;;;;103.00;20.87;;;;;;;12.22;100.00;100365.38;124572;1092;64285;-73
2021/07/01 05:37:39;;;;;;;34.70;13.33;;;;;;;12.22;100.00;100354.73;124884;1093;64287;-74
2021/07/01 05:40:07;;;;;;;165.27;33.23;;;;;;;12.23;100.00;100352.89;124821;1093;64287;-73
2021/07/01 05:42:34;;;;;;;93.27;21.53;;;;;;;12.22;100.00;100354.73;124701;1093;64285;-74
2021/07/01 05:45:03;;;;;;;93.40;21.37;;;;;;;12.24;100.00;100357.22;124635;1093;64842;-73
2021/07/01 05:47:31;;;;;;;70.00;21.10;;;;;;;12.23;100.00;100348.39;124988;1093;65487;-73
2021/07/01 05:50:00;;;;;;;57.97;21.33;;;;;;;12.23;100.00;100348.39;125012;1093;64346;-74
2021/07/01 05:52:29;;;;;;;57.03;21.90;;;;;;;12.22;100.00;100352.08;124833;1093;64285;-74
2021/07/01 05:54:57;;;;;;;103.17;30.80;;;;;;;12.23;100.00;100356.37;124831;1093;64281;-74
2021/07/01 05:57:27;;;;;;;93.93;22.13;;;;;;;12.22;100.00;100359.24;124832;1093;64409;-74
2021/07/01 05:59:55;;;;;;;115.30;33.63;;;;;;;12.23;100.00;100359.03;124603;1093;64684;-72
2021/07/01 06:02:23;;;;;;;82.97;25.73;;;;;;;12.24;100.00;100360.69;124834;1093;64302;-72
2021/07/01 06:04:50;;;;;;;93.63;29.40;;;;;;;12.27;100.00;100358.66;124721;1093;64333;-72
2021/07/01 06:07:22;;;;;;;115.60;39.93;;;;;;;12.28;100.00;100361.10;124771;1092;64282;-73
2021/07/01 06:09:54;;;;;;;65.10;22.13;;;;;;;12.30;100.00;100364.39;124815;1093;64361;-75
2021/07/01 06:12:23;;;;;;;162.30;40.05;;;;;;;12.33;100.00;100363.20;125009;1093;64285;-73
2021/07/01 06:14:58;;;;;;;260.33;57.03;;;;;;;12.35;100.00;100361.17;125037;1093;65213;-72
2021/07/01 06:17:33;;;;;;;181.50;39.90;;;;;;;12.37;100.00;100353.82;124821;1093;64304;-73
2021/07/01 06:20:06;;;;;;;94.83;28.23;;;;;;;12.39;100.00;100351.79;124791;1092;64821;-73
2021/07/01 06:22:33;;;;;;;166.80;34.83;;;;;;;12.43;100.00;100345.03;124855;1093;64272;-73
2021/07/01 06:25:02;;;;;;;100.87;27.77;;;;;;;12.47;100.00;100350.80;124955;1093;64334;-73
2021/07/01 06:27:34;;;;;;;124.33;29.97;;;;;;;12.49;100.00;100349.57;124981;1093;64329;-73
2021/07/01 06:30:09;;;;;;;149.30;28.23;;;;;;;12.53;100.00;100353.48;124905;1093;64214;-73
2021/07/01 06:32:46;;;;;;;169.73;29.23;;;;;;;12.56;100.00;100344.28;124745;1093;64227;-73
2021/07/01 06:35:14;;;;;;;54.33;18.43;;;;;;;12.60;100.00;100335.73;124708;1093;64327;-73
2021/07/01 06:37:43;;;;;;;67.65;21.55;;;;;;;12.62;100.00;100352.33;124789;1093;64298;-74
2021/07/01 06:40:13;;;;;;;47.40;19.00;;;;;;;12.63;100.00;100337.98;125043;1093;64204;-73
2021/07/01 06:42:49;;;;;;;134.53;21.60;;;;;;;12.64;100.00;100344.97;124862;1093;64293;-72
2021/07/01 06:45:17;;;;;;;77.13;21.93;;;;;;;12.66;100.00;100336.77;124968;1093;64288;-71
2021/07/01 06:47:49;;;;;;;39.63;13.93;;;;;;;12.69;100.00;100340.87;124956;1092;64288;-71
2021/07/01 06:50:20;;;;;;;49.00;13.90;;;;;;;12.70;100.00;100338.02;124754;1093;64741;-71
2021/07/01 06:52:48;;;;;;;46.10;15.97;;;;;;;12.70;100.00;100338.02;124852;1093;64818;-71
2021/07/01 06:55:16;;;;;;;41.13;14.37;;;;;;;12.74;100.00;100346.44;124904;1093;64268;-73
2021/07/01 06:57:44;;;;;;;108.73;26.93;;;;;;;12.78;100.00;100334.38;124867;1093;64282;-73
2021/07/01 07:00:17;;;;;;;61.57;20.50;;;;;;;12.82;100.00;100335.63;124880;1093;64227;-73
2021/07/01 07:02:44;;;;;;;60.33;19.43;;;;;;;12.86;100.00;100344.86;124722;1093;64214;-73
2021/07/01 07:05:14;;;;;;;83.30;22.15;;;;;;;12.91;100.00;100354.91;124774;1093;64285;-73
2021/07/01 07:07:44;;;;;;;46.33;16.63;;;;;;;12.93;100.00;100345.70;124735;1093;64242;-73
2021/07/01 07:10:13;;;;;;;83.53;19.17;;;;;;;12.97;100.00;100354.12;124938;1093;64297;-73
2021/07/01 07:12:42;;;;;;;74.40;19.97;;;;;;;12.99;100.00;100342.24;124770;1093;64368;-73
2021/07/01 07:15:15;;;;;;;170.90;29.60;;;;;;;13.02;100.00;100349.81;124777;1092;64307;-71
2021/07/01 07:17:43;;;;;;;138.03;23.53;;;;;;;13.04;100.00;100350.44;124761;1093;64301;-72
2021/07/01 07:20:14;;;;;;;85.37;19.30;;;;;;;13.05;100.00;100346.77;127232;1093;64216;-73
2021/07/01 07:22:42;;;;;;;30.23;11.40;;;;;;;13.09;100.00;100351.69;124880;1093;64339;-72
2021/07/01 07:25:11;;;;;;;82.30;17.57;;;;;;;13.09;100.00;100354.34;124799;1093;64284;-72
2021/07/01 07:27:44;;;;;;;53.60;17.60;;;;;;;13.09;100.00;100352.53;124832;1092;64301;-72
2021/07/01 07:30:12;;;;;;;48.10;13.23;;;;;;;13.10;100.00;100350.68;124880;1093;64300;-71
2021/07/01 07:32:40;;;;;;;69.50;15.70;;;;;;;13.10;100.00;100359.48;124758;1093;64284;-72
2021/07/01 07:35:11;;;;;;;56.83;15.53;;;;;;;13.13;100.00;100358.26;124817;1092;64304;-72
2021/07/01 07:37:39;;;;;;;66.57;15.03;;;;;;;13.11;100.00;100357.63;124788;1092;64342;-71
2021/07/01 07:40:07;;;;;;;26.77;10.07;;;;;;;13.11;100.00;100357.63;124715;1093;64371;-71
2021/07/01 07:42:34;;;;;;;30.30;9.80;;;;;;;13.14;100.00;100357.25;124745;1093;64313;-72
2021/07/01 07:45:02;;;;;;;24.33;9.67;;;;;;;13.13;100.00;100358.26;124810;1093;64304;-72
2021/07/01 07:47:30;;;;;;;101.23;14.43;;;;;;;13.16;100.00;100365.87;124821;1093;64288;-72
2021/07/01 07:49:57;;;;;;;178.43;16.90;;;;;;;13.19;100.00;100363.60;124772;1093;64330;-71
2021/07/01 07:52:28;;;;;;;52.77;12.47;;;;;;;13.22;100.00;100359.74;124974;1093;64275;-72
2021/07/01 07:54:56;;;;;;;25.80;8.73;;;;;;;13.25;100.00;100356.66;124979;1093;64259;-72
2021/07/01 07:57:29;;;;;;;112.23;13.87;;;;;;;13.27;100.00;100354.62;125139;1093;64288;-71
2021/07/01 07:59:58;;;;;;;26.97;10.33;;;;;;;13.32;100.00;100344.20;124939;1093;64237;-71
2021/07/01 08:02:45;;;;;;;80.37;13.93;;;;;;;13.38;100.00;100351.39;124930;1093;64346;-70
2021/07/01 08:05:15;;;;;;;24.63;10.13;;;;;;;13.43;100.00;100343.63;124833;1093;64285;-72
2021/07/01 08:07:43;;;;;;;33.93;12.43;;;;;;;13.44;100.00;100355.92;124949;1093;64980;-71
2021/07/01 08:10:14;;;;;;;40.23;10.03;;;;;;;13.44;100.00;100349.77;124811;1093;64400;-72
2021/07/01 08:12:50;;;;;;;36.03;11.70;;;;;;;13.48;100.00;100355.53;124761;1093;64387;-72
2021/07/01 08:15:19;;;;;;;31.30;9.30;;;;;;;13.48;100.00;100355.53;124882;1093;64423;-72
2021/07/01 08:17:54;;;;;;;64.53;13.17;;;;;;;13.51;100.00;100357.77;125192;1093;64403;-72
2021/07/01 08:20:22;;;;;;;84.07;11.47;;;;;;;13.53;100.00;100364.53;124755;1093;64390;-72
2021/07/01 08:22:52;;;;;;;49.57;15.30;;;;;;;13.55;100.00;100364.34;124710;1093;64412;-72
2021/07/01 08:25:20;;;;;;;33.50;10.13;;;;;;;13.58;100.00;100361.26;124887;1092;64211;-71
2021/07/01 08:27:49;;;;;;;28.27;9.03;;;;;;;13.62;100.00;100362.50;124820;1092;64445;-71
2021/07/01 08:30:19;;;;;;;56.40;15.30;;;;;;;13.63;100.00;100359.64;124961;1093;65836;-72
2021/07/01 08:32:52;;;;;;;27.90;11.67;;;;;;;13.64;100.00;100360.45;124924;1093;64288;-73
2021/07/01 08:35:22;;;;;;;23.70;11.27;;;;;;;13.68;100.00;100360.88;124896;1093;64304;-73
2021/07/01 08:37:53;;;;;;;57.40;17.70;;;;;;;13.71;100.00;100366.63;124903;1093;64304;-74
2021/07/01 08:40:20;;;;;;;42.53;14.13;;;;;;;13.73;100.00;100363.73;124707;1093;64358;-73
2021/07/01 08:42:54;;;;;;;107.00;16.70;;;;;;;13.75;100.00;100370.53;124625;1093;64387;-73
2021/07/01 08:45:30;;;;;;;81.40;18.33;;;;;;;13.78;100.00;100361.30;124695;1093;64371;-72
2021/07/01 08:48:00;;;;;;;57.00;14.10;;;;;;;13.81;100.00;100363.55;124697;1093;64878;-72
2021/07/01 08:50:32;;;;;;;26.83;9.53;;;;;;;13.80;100.00;100365.40;124767;1093;64305;-74
2021/07/01 08:53:03;;;;;;;72.13;15.50;;;;;;;13.80;100.00;100368.06;124957;1092;64304;-73
2021/07/01 08:55:31;;;;;;;24.33;9.53;;;;;;;13.83;100.00;100374.83;125004;1093;64408;-73
2021/07/01 08:58:00;;;;;;;84.73;13.47;;;;;;;13.83;100.00;100369.50;124993;1093;64211;-71
2021/07/01 09:00:28;;;;;;;40.13;10.57;;;;;;;13.79;100.00;100374.44;124766;1093;64211;-71
2021/07/01 09:03:04;;;;;;;37.93;11.27;;;;;;;13.81;100.00;100367.05;124752;1093;64305;-70
2021/07/01 09:05:33;;;;;;;24.80;9.00;;;;;;;13.78;100.00;100378.11;124747;1093;64310;-71
2021/07/01 09:08:08;;;;;;;24.00;7.50;;;;;;;13.76;100.00;100374.83;124972;1093;64369;-71
2021/07/01 09:10:36;;;;;;;18.27;7.53;;;;;;;13.69;100.00;100374.01;124697;1093;64320;-72
2021/07/01 09:13:08;;;;;;;28.17;7.87;;;;;;;13.65;100.00;100378.10;124778;1093;64265;-71
2021/07/01 09:15:37;;;;;;;27.17;6.63;;;;;;;13.65;100.00;100386.09;124921;1093;64289;-71
2021/07/01 09:18:09;;;;;;;35.90;7.77;;;;;;;13.65;100.00;100381.58;124758;1093;64419;-72
2021/07/01 09:20:38;;;;;;;24.50;6.67;;;;;;;13.68;100.00;100376.87;124749;1092;64333;-72
2021/07/01 09:23:07;;;;;;;44.17;9.03;;;;;;;13.68;100.00;100383.02;124802;1093;64230;-72
2021/07/01 09:25:35;;;;;;;46.90;8.30;;;;;;;13.67;100.00;100381.39;125000;1093;64376;-72
2021/07/01 09:28:04;;;;;;;29.40;7.80;;;;;;;13.66;100.00;100379.73;124841;1093;64290;-71
2021/07/01 09:30:33;;;;;;;19.67;7.37;;;;;;;13.71;100.00;100382.63;124814;1093;64345;-72
2021/07/01 09:33:04;;;;;;;24.60;8.77;;;;;;;13.70;100.00;100383.63;124877;1093;64284;-72
2021/07/01 09:35:34;;;;;;;61.43;8.23;;;;;;;13.71;100.00;100387.95;124961;1093;64307;-72
2021/07/01 09:38:07;;;;;;;89.23;9.37;;;;;;;13.70;100.00;100380.97;124849;1093;64310;-72
2021/07/01 09:40:36;;;;;;;73.53;15.67;;;;;;;13.69;100.00;100387.34;124716;1093;64268;-72
2021/07/01 09:43:07;;;;;;;38.10;9.97;;;;;;;13.71;100.00;100387.11;124700;1092;64394;-73
2021/07/01 09:45:36;;;;;;;33.65;10.05;;;;;;;13.71;100.00;100379.95;124671;1093;64693;-72
2021/07/01 09:48:07;;;;;;;12.77;6.00;;;;;;;13.73;100.00;100380.58;124768;1093;64278;-72
2021/07/01 09:50:49;;;;;;;28.57;8.20;;;;;;;13.76;100.00;100369.50;124900;1093;64983;-72
2021/07/01 09:53:34;;;;;;;29.63;7.13;;;;;;;13.77;100.00;100371.16;124926;1093;65356;-74
2021/07/01 09:56:04;;;;;;;24.67;8.93;;;;;;;13.82;100.00;100374.02;124894;1093;64326;-73
2021/07/01 09:58:32;;;;;;;60.60;9.90;;;;;;;13.83;100.00;100370.34;124855;1093;65481;-72
2021/07/01 10:00:59;;;;;;;82.60;15.50;;;;;;;13.86;100.00;100385.91;124828;1093;64255;-72
2021/07/01 10:03:26;;;;;;;13.73;4.90;;;;;;;13.89;100.00;100387.34;124676;1092;64381;-73
2021/07/01 10:05:54;;;;;;;94.95;11.65;;;;;;;13.92;100.00;100380.77;124788;1093;64205;-72
2021/07/01 10:08:37;;;;;;;76.37;12.07;;;;;;;13.95;100.00;100391.87;124643;1092;64428;-73
2021/07/01 10:11:05;;;;;;;24.50;8.20;;;;;;;13.97;100.00;100392.48;124834;1093;64348;-73
2021/07/01 10:13:34;;;;;;;50.15;12.50;;;;;;;13.99;100.00;100390.43;124638;1093;64288;-73
2021/07/01 10:16:02;;;;;;;56.63;8.57;;;;;;;14.00;100.00;100400.06;124920;1093;64307;-73
2021/07/01 10:18:41;;;;;;;44.03;11.87;;;;;;;14.04;100.00;100392.48;124884;1093;64211;-73
2021/07/01 10:21:17;;;;;;;94.80;10.15;;;;;;;14.07;100.00;100400.09;124738;1093;64325;-73
2021/07/01 10:23:44;;;;;;;12.30;5.85;;;;;;;14.08;100.00;100396.38;124877;1093;64278;-73
2021/07/01 10:26:16;;;;;;;29.10;5.80;;;;;;;14.11;100.00;100397.81;124917;1093;65480;-74
2021/07/01 10:28:57;;;;;;;55.25;7.90;;;;;;;14.12;100.00;100405.62;124957;1093;64297;-73
2021/07/01 10:31:24;;;;;;;42.33;6.07;;;;;;;14.12;100.00;100405.62;124745;1093;64712;-74
2021/07/01 10:33:59;;;;;;;51.43;8.87;;;;;;;14.16;100.00;100400.70;124731;1092;64307;-73
2021/07/01 10:36:27;;;;;;;6.00;3.10;;;;;;;14.16;100.00;100396.18;124833;1093;64285;-72
2021/07/01 10:38:55;;;;;;;110.43;15.40;;;;;;;14.19;100.00;100400.27;124894;1093;64285;-72
2021/07/01 10:41:31;;;;;;;12.90;4.33;;;;;;;14.23;100.00;100390.84;124770;1093;64293;-73
2021/07/01 10:43:59;;;;;;;128.10;13.70;;;;;;;14.26;100.00;100401.92;124802;1093;64239;-71
2021/07/01 10:46:44;;;;;;;36.97;6.50;;;;;;;14.32;100.00;100399.45;124763;1093;64815;-72
2021/07/01 10:49:12;;;;;;;11.55;4.00;;;;;;;14.35;100.00;100397.20;124840;1093;64365;-71
2021/07/01 10:51:59;;;;;;;44.83;4.37;;;;;;;14.36;100.00;100406.02;124668;1093;64307;-72
2021/07/01 10:54:27;;;;;;;46.47;8.33;;;;;;;14.41;100.00;100404.38;124909;1093;64259;-72
2021/07/01 10:57:05;;;;;;;95.70;11.90;;;;;;;14.47;100.00;100408.05;124881;1093;64304;-72
2021/07/01 10:59:53;;;;;;;19.05;5.70;;;;;;;14.51;100.00;100397.78;124904;1093;64983;-72
2021/07/01 11:02:32;;;;;;;10.87;3.63;;;;;;;14.57;100.00;100403.13;124950;1093;64281;-72
2021/07/01 11:05:05;;;;;;;93.73;8.70;;;;;;;14.58;99.83;100407.46;124858;1093;64301;-72